Carr Creek, Kentucky
Current Conditions -  °F | °C
As of 3:35 AM on Saturday 01 Nov 2014 (Local Time) from KLNP Reporting Station
Light Snow Light Snow  
Wind Chill: 26°   Ceiling: 600
Heat Index: 32°   Visibility: 2mi
Dew Point: 32°   Wind: 6mph
Humidity: 100%   Direction: 310°NW
Pressure: 29.83"   Gusts: NA
Location:  37.2561°N, 82.8707°W
Report Text: KLNP 010735Z AUTO 31005KT 2SM -SN OVC006 00/00 A2983 RMK AO2
Loading
Personal Weather Stations






























Interactive Weather Map
Tropical Storm Tracking
New forecast layout! Learn more

10-Day Weather Forecast

Advertisements
Track Severe Weather on mobile